RYR86DZ EBCI-LFMU
Flight info
| Callsign | RYR86DZ |
|---|---|
| Flight time | 1h 26m |
| Altitude | 33000 |
| Route | CIV N872 LESDO DCT KOVIN DCT DUCRA UM728 RESMI UN857 DISAK DCT DIRMO DCT ETAMO DCT ADEKA DCT MOKDI DCT MEN/N0331F190 J27 AFRIC |
| Aircraft | B738/M-SDE2E3FGHIRWXY/LB1 |
Departure
| Time | 2026-05-05 12:41 |
|---|---|
| Airport | Brussels South Charleroi Airport (EBCI) |
Arrival
| Time | 2026-05-05 14:07 |
|---|---|
| Airport | Béziers Vias airport (LFMU) |
| Time | Latitude | Longitude | Altitude | Speed | Heading |
|---|---|---|---|---|---|
| 2026-05-05 12:21 | 50.46839 | 4.46987 | 584 ft | 0 kts | 335° |
| 2026-05-05 12:29 | 50.46832 | 4.46992 | 584 ft | 4 kts | 335° |
| 2026-05-05 12:29 | 50.46809 | 4.47008 | 584 ft | 4 kts | 336° |
| 2026-05-05 12:29 | 50.46788 | 4.47011 | 584 ft | 5 kts | 45° |
| 2026-05-05 12:29 | 50.46774 | 4.46976 | 584 ft | 5 kts | 65° |
| 2026-05-05 12:30 | 50.46770 | 4.46962 | 584 ft | 3 kts | 65° |
| 2026-05-05 12:34 | 50.46770 | 4.46963 | 584 ft | 0 kts | 65° |
| 2026-05-05 12:34 | 50.46775 | 4.46979 | 584 ft | 5 kts | 65° |
| 2026-05-05 12:34 | 50.46801 | 4.47069 | 584 ft | 11 kts | 65° |
| 2026-05-05 12:34 | 50.46831 | 4.47174 | 585 ft | 10 kts | 66° |
| 2026-05-05 12:35 | 50.46857 | 4.47267 | 584 ft | 8 kts | 73° |
| 2026-05-05 12:35 | 50.46841 | 4.47325 | 586 ft | 6 kts | 150° |
| 2026-05-05 12:35 | 50.46815 | 4.47345 | 587 ft | 3 kts | 154° |
| 2026-05-05 12:35 | 50.46812 | 4.47347 | 587 ft | 0 kts | 154° |
| 2026-05-05 12:37 | 50.46800 | 4.47356 | 587 ft | 4 kts | 155° |
| 2026-05-05 12:37 | 50.46775 | 4.47374 | 588 ft | 4 kts | 155° |
| 2026-05-05 12:37 | 50.46762 | 4.47384 | 589 ft | 0 kts | 155° |
| 2026-05-05 12:38 | 50.46761 | 4.47384 | 589 ft | 1 kts | 155° |
| 2026-05-05 12:38 | 50.46736 | 4.47402 | 590 ft | 6 kts | 155° |
| 2026-05-05 12:38 | 50.46699 | 4.47428 | 592 ft | 6 kts | 156° |
| 2026-05-05 12:39 | 50.46662 | 4.47453 | 594 ft | 6 kts | 156° |
| 2026-05-05 12:39 | 50.46627 | 4.47469 | 595 ft | 5 kts | 189° |
| 2026-05-05 12:39 | 50.46608 | 4.47433 | 596 ft | 0 kts | 245° |
| 2026-05-05 12:40 | 50.46602 | 4.47415 | 596 ft | 6 kts | 245° |
| 2026-05-05 12:40 | 50.46516 | 4.47110 | 596 ft | 66 kts | 246° |
| 2026-05-05 12:40 | 50.46223 | 4.46109 | 591 ft | 133 kts | 245° |
| 2026-05-05 12:40 | 50.45770 | 4.44536 | 701 ft | 174 kts | 245° |
| 2026-05-05 12:41 | 50.45191 | 4.42839 | 1408 ft | 177 kts | 245° |
| 2026-05-05 12:41 | 50.44667 | 4.41112 | 2202 ft | 175 kts | 249° |
| 2026-05-05 12:41 | 50.44175 | 4.39298 | 2814 ft | 190 kts | 248° |
| 2026-05-05 12:41 | 50.43623 | 4.37274 | 3219 ft | 216 kts | 248° |
| 2026-05-05 12:42 | 50.42989 | 4.34985 | 3467 ft | 241 kts | 246° |
| 2026-05-05 12:42 | 50.42289 | 4.32519 | 3920 ft | 254 kts | 246° |
| 2026-05-05 12:42 | 50.41541 | 4.29909 | 4401 ft | 273 kts | 246° |
| 2026-05-05 12:42 | 50.40846 | 4.27101 | 5173 ft | 282 kts | 261° |
| 2026-05-05 12:43 | 50.41068 | 4.24096 | 6058 ft | 279 kts | 296° |
| 2026-05-05 12:43 | 50.42021 | 4.21447 | 6912 ft | 282 kts | 303° |
| 2026-05-05 12:43 | 50.43087 | 4.18842 | 7706 ft | 286 kts | 304° |
| 2026-05-05 12:43 | 50.44179 | 4.16220 | 8535 ft | 289 kts | 304° |
| 2026-05-05 12:44 | 50.45283 | 4.13547 | 9329 ft | 294 kts | 304° |
| 2026-05-05 12:44 | 50.46392 | 4.10832 | 10096 ft | 298 kts | 304° |
| 2026-05-05 12:44 | 50.47542 | 4.07997 | 10441 ft | 319 kts | 304° |
| 2026-05-05 12:44 | 50.48757 | 4.04982 | 10625 ft | 329 kts | 304° |
| 2026-05-05 12:45 | 50.49972 | 4.01948 | 10787 ft | 327 kts | 304° |
| 2026-05-05 12:45 | 50.51175 | 3.98937 | 11076 ft | 324 kts | 304° |
| 2026-05-05 12:45 | 50.52377 | 3.95927 | 11544 ft | 328 kts | 303° |
| 2026-05-05 12:45 | 50.53601 | 3.92859 | 12010 ft | 334 kts | 303° |
| 2026-05-05 12:46 | 50.54582 | 3.89600 | 12439 ft | 340 kts | 284° |
| 2026-05-05 12:46 | 50.54668 | 3.85884 | 12832 ft | 349 kts | 259° |
| 2026-05-05 12:46 | 50.53759 | 3.82307 | 13295 ft | 360 kts | 234° |
| 2026-05-05 12:46 | 50.51942 | 3.79547 | 14024 ft | 361 kts | 210° |
| 2026-05-05 12:47 | 50.49689 | 3.77825 | 14816 ft | 361 kts | 201° |
| 2026-05-05 12:47 | 50.47393 | 3.76309 | 15566 ft | 364 kts | 200° |
| 2026-05-05 12:47 | 50.45043 | 3.74787 | 16349 ft | 367 kts | 200° |
| 2026-05-05 12:47 | 50.42650 | 3.73215 | 17154 ft | 369 kts | 201° |
| 2026-05-05 12:48 | 50.40308 | 3.71649 | 17916 ft | 372 kts | 201° |
| 2026-05-05 12:48 | 50.37923 | 3.70034 | 18632 ft | 374 kts | 201° |
| 2026-05-05 12:48 | 50.35526 | 3.68406 | 19300 ft | 377 kts | 202° |
| 2026-05-05 12:48 | 50.33108 | 3.66765 | 19914 ft | 381 kts | 202° |
| 2026-05-05 12:49 | 50.30666 | 3.65110 | 20588 ft | 383 kts | 202° |
| 2026-05-05 12:49 | 50.28220 | 3.63456 | 21307 ft | 384 kts | 202° |
| 2026-05-05 12:49 | 50.25757 | 3.61792 | 21887 ft | 388 kts | 202° |
| 2026-05-05 12:49 | 50.23264 | 3.60108 | 22408 ft | 393 kts | 202° |
| 2026-05-05 12:50 | 50.20750 | 3.58413 | 23096 ft | 394 kts | 202° |
| 2026-05-05 12:50 | 50.18230 | 3.56718 | 23710 ft | 395 kts | 202° |
| 2026-05-05 12:50 | 50.15692 | 3.55015 | 24127 ft | 400 kts | 202° |
| 2026-05-05 12:50 | 50.13124 | 3.53295 | 24583 ft | 403 kts | 202° |
| 2026-05-05 12:51 | 50.10539 | 3.51567 | 25107 ft | 405 kts | 202° |
| 2026-05-05 12:51 | 50.07950 | 3.49837 | 25616 ft | 406 kts | 202° |
| 2026-05-05 12:51 | 50.05339 | 3.48094 | 26046 ft | 411 kts | 202° |
| 2026-05-05 12:51 | 50.02701 | 3.46335 | 26488 ft | 413 kts | 202° |
| 2026-05-05 12:52 | 50.00060 | 3.44575 | 27052 ft | 413 kts | 202° |
| 2026-05-05 12:52 | 49.97430 | 3.42824 | 27706 ft | 410 kts | 201° |
| 2026-05-05 12:52 | 49.94818 | 3.41087 | 28372 ft | 407 kts | 201° |
| 2026-05-05 12:52 | 49.92226 | 3.39365 | 29025 ft | 404 kts | 201° |
| 2026-05-05 12:53 | 49.89648 | 3.37655 | 29615 ft | 403 kts | 201° |
| 2026-05-05 12:53 | 49.87065 | 3.35944 | 30085 ft | 404 kts | 201° |
| 2026-05-05 12:53 | 49.84484 | 3.34235 | 30595 ft | 402 kts | 201° |
| 2026-05-05 12:53 | 49.81922 | 3.32542 | 31158 ft | 399 kts | 201° |
| 2026-05-05 12:54 | 49.76857 | 3.29194 | 32220 ft | 394 kts | 201° |
| 2026-05-05 12:54 | 49.74341 | 3.27530 | 32704 ft | 392 kts | 201° |
| 2026-05-05 12:54 | 49.71822 | 3.25865 | 32861 ft | 396 kts | 201° |
| 2026-05-05 12:55 | 49.69287 | 3.24192 | 32890 ft | 396 kts | 201° |
| 2026-05-05 12:55 | 49.64240 | 3.20865 | 32883 ft | 393 kts | 201° |
| 2026-05-05 12:56 | 49.59205 | 3.17553 | 32886 ft | 393 kts | 201° |
| 2026-05-05 12:56 | 49.54169 | 3.14247 | 32874 ft | 394 kts | 201° |
| 2026-05-05 12:57 | 49.49134 | 3.10931 | 32878 ft | 394 kts | 204° |
| 2026-05-05 12:57 | 49.44485 | 3.06546 | 32867 ft | 396 kts | 211° |
| 2026-05-05 12:58 | 49.39922 | 3.01841 | 32869 ft | 394 kts | 211° |
| 2026-05-05 12:58 | 49.35363 | 2.97180 | 32863 ft | 393 kts | 211° |
| 2026-05-05 12:59 | 49.30807 | 2.92564 | 32855 ft | 392 kts | 211° |
| 2026-05-05 12:59 | 49.26250 | 2.87965 | 32863 ft | 392 kts | 211° |
| 2026-05-05 13:00 | 49.19387 | 2.81063 | 32860 ft | 395 kts | 211° |
| 2026-05-05 13:01 | 49.10164 | 2.71822 | 32860 ft | 398 kts | 211° |
| 2026-05-05 13:01 | 49.05514 | 2.67178 | 32866 ft | 401 kts | 211° |
| 2026-05-05 13:02 | 49.00816 | 2.62494 | 32863 ft | 405 kts | 211° |
| 2026-05-05 13:02 | 48.96114 | 2.57819 | 32848 ft | 402 kts | 211° |
| 2026-05-05 13:03 | 48.91439 | 2.53181 | 32853 ft | 400 kts | 211° |
| 2026-05-05 13:03 | 48.86793 | 2.48579 | 32847 ft | 398 kts | 211° |
| 2026-05-05 13:04 | 48.82161 | 2.44000 | 32826 ft | 397 kts | 211° |
| 2026-05-05 13:04 | 48.77523 | 2.39426 | 32839 ft | 398 kts | 211° |
| 2026-05-05 13:05 | 48.72884 | 2.34861 | 32817 ft | 402 kts | 210° |
| 2026-05-05 13:05 | 48.68148 | 2.30209 | 32838 ft | 404 kts | 211° |
| 2026-05-05 13:06 | 48.63423 | 2.25576 | 32836 ft | 405 kts | 211° |
| 2026-05-05 13:06 | 48.58738 | 2.21019 | 32843 ft | 404 kts | 208° |
| 2026-05-05 13:07 | 48.53595 | 2.17992 | 32831 ft | 398 kts | 190° |
| 2026-05-05 13:07 | 48.48179 | 2.16316 | 32825 ft | 396 kts | 189° |
| 2026-05-05 13:08 | 48.42805 | 2.14647 | 32832 ft | 394 kts | 189° |
| 2026-05-05 13:08 | 48.37445 | 2.12934 | 32828 ft | 394 kts | 189° |
| 2026-05-05 13:09 | 48.32055 | 2.11205 | 32838 ft | 398 kts | 189° |
| 2026-05-05 13:09 | 48.26536 | 2.10316 | 32838 ft | 402 kts | 174° |
| 2026-05-05 13:10 | 48.21027 | 2.11502 | 32806 ft | 399 kts | 169° |
| 2026-05-05 13:10 | 48.15587 | 2.12718 | 32825 ft | 395 kts | 169° |
| 2026-05-05 13:11 | 48.10089 | 2.13502 | 32834 ft | 399 kts | 175° |
| 2026-05-05 13:11 | 48.04507 | 2.13791 | 32832 ft | 402 kts | 176° |
| 2026-05-05 13:12 | 47.98890 | 2.14068 | 32846 ft | 405 kts | 176° |
| 2026-05-05 13:12 | 47.93240 | 2.14375 | 32840 ft | 407 kts | 176° |
| 2026-05-05 13:13 | 47.87591 | 2.14698 | 32819 ft | 405 kts | 176° |
| 2026-05-05 13:13 | 47.81991 | 2.15022 | 32829 ft | 400 kts | 176° |
| 2026-05-05 13:14 | 47.77391 | 2.15288 | 32828 ft | 396 kts | 176° |
| 2026-05-05 13:14 | 47.71900 | 2.15606 | 32825 ft | 394 kts | 176° |
| 2026-05-05 13:15 | 47.66414 | 2.15923 | 32832 ft | 396 kts | 176° |
| 2026-05-05 13:15 | 47.60873 | 2.16243 | 32828 ft | 401 kts | 176° |
| 2026-05-05 13:16 | 47.55291 | 2.16563 | 32820 ft | 402 kts | 176° |
| 2026-05-05 13:16 | 47.49714 | 2.16882 | 32822 ft | 400 kts | 176° |
| 2026-05-05 13:17 | 47.44154 | 2.17200 | 32831 ft | 399 kts | 176° |
| 2026-05-05 13:17 | 47.38606 | 2.17516 | 32828 ft | 399 kts | 176° |
| 2026-05-05 13:18 | 47.33067 | 2.17831 | 32842 ft | 398 kts | 176° |
| 2026-05-05 13:18 | 47.27541 | 2.18145 | 32841 ft | 397 kts | 176° |
| 2026-05-05 13:19 | 47.22024 | 2.18458 | 32842 ft | 396 kts | 176° |
| 2026-05-05 13:19 | 47.16514 | 2.18770 | 32848 ft | 396 kts | 176° |
| 2026-05-05 13:20 | 47.11004 | 2.19097 | 32852 ft | 396 kts | 174° |
| 2026-05-05 13:20 | 47.05675 | 2.20963 | 32851 ft | 395 kts | 158° |
| 2026-05-05 13:21 | 47.00596 | 2.24020 | 32868 ft | 395 kts | 158° |
| 2026-05-05 13:21 | 46.95504 | 2.27063 | 32857 ft | 395 kts | 158° |
| 2026-05-05 13:22 | 46.90438 | 2.30039 | 32862 ft | 395 kts | 159° |
| 2026-05-05 13:22 | 46.85305 | 2.33038 | 32857 ft | 394 kts | 158° |
| 2026-05-05 13:23 | 46.80571 | 2.36935 | 32858 ft | 394 kts | 147° |
| 2026-05-05 13:23 | 46.76012 | 2.41347 | 32861 ft | 393 kts | 147° |
| 2026-05-05 13:24 | 46.71456 | 2.45734 | 32851 ft | 392 kts | 148° |
| 2026-05-05 13:24 | 46.66891 | 2.50088 | 32865 ft | 392 kts | 148° |
| 2026-05-05 13:25 | 46.62308 | 2.54437 | 32867 ft | 394 kts | 148° |
| 2026-05-05 13:25 | 46.57699 | 2.58798 | 32870 ft | 396 kts | 148° |
| 2026-05-05 13:26 | 46.53066 | 2.63172 | 32879 ft | 398 kts | 148° |
| 2026-05-05 13:26 | 46.48417 | 2.67555 | 32871 ft | 399 kts | 149° |
| 2026-05-05 13:27 | 46.43762 | 2.71932 | 32874 ft | 399 kts | 149° |
| 2026-05-05 13:27 | 46.39139 | 2.76271 | 32875 ft | 398 kts | 149° |
| 2026-05-05 13:28 | 46.34500 | 2.80617 | 32863 ft | 397 kts | 149° |
| 2026-05-05 13:28 | 46.29872 | 2.84943 | 32869 ft | 396 kts | 149° |
| 2026-05-05 13:29 | 46.25243 | 2.89260 | 32883 ft | 396 kts | 149° |
| 2026-05-05 13:29 | 46.20606 | 2.93577 | 32878 ft | 397 kts | 149° |
| 2026-05-05 13:30 | 46.15956 | 2.97897 | 32880 ft | 398 kts | 149° |
| 2026-05-05 13:30 | 46.11297 | 3.02218 | 32864 ft | 399 kts | 150° |
| 2026-05-05 13:31 | 46.06621 | 3.06546 | 32871 ft | 400 kts | 150° |
| 2026-05-05 13:31 | 46.01934 | 3.10875 | 32881 ft | 401 kts | 150° |
| 2026-05-05 13:32 | 45.97228 | 3.15192 | 32880 ft | 401 kts | 153° |
| 2026-05-05 13:32 | 45.94712 | 3.16837 | 32865 ft | 396 kts | 165° |
| 2026-05-05 13:32 | 45.92054 | 3.17781 | 32878 ft | 393 kts | 173° |
| 2026-05-05 13:33 | 45.86639 | 3.18024 | 32884 ft | 389 kts | 183° |
| 2026-05-05 13:33 | 45.81227 | 3.17884 | 32884 ft | 388 kts | 183° |
| 2026-05-05 13:34 | 45.75828 | 3.17768 | 32883 ft | 388 kts | 182° |
| 2026-05-05 13:34 | 45.70430 | 3.17681 | 32875 ft | 388 kts | 183° |
| 2026-05-05 13:35 | 45.65040 | 3.17607 | 32878 ft | 387 kts | 183° |
| 2026-05-05 13:35 | 45.59684 | 3.17536 | 32877 ft | 387 kts | 183° |
| 2026-05-05 13:36 | 45.54295 | 3.17465 | 32882 ft | 387 kts | 183° |
| 2026-05-05 13:36 | 45.48909 | 3.17395 | 32882 ft | 387 kts | 184° |
| 2026-05-05 13:37 | 45.43533 | 3.17324 | 32881 ft | 386 kts | 184° |
| 2026-05-05 13:37 | 45.38164 | 3.17254 | 32879 ft | 385 kts | 184° |
| 2026-05-05 13:38 | 45.32799 | 3.17184 | 32882 ft | 385 kts | 184° |
| 2026-05-05 13:38 | 45.27443 | 3.17112 | 32892 ft | 385 kts | 184° |
| 2026-05-05 13:39 | 45.22092 | 3.17043 | 32876 ft | 384 kts | 184° |
| 2026-05-05 13:39 | 45.16752 | 3.16974 | 32881 ft | 383 kts | 184° |
| 2026-05-05 13:40 | 45.11432 | 3.16906 | 32890 ft | 381 kts | 185° |
| 2026-05-05 13:40 | 45.06146 | 3.16837 | 32893 ft | 378 kts | 185° |
| 2026-05-05 13:41 | 45.00897 | 3.16768 | 32876 ft | 376 kts | 185° |
| 2026-05-05 13:41 | 44.95677 | 3.16700 | 32896 ft | 375 kts | 185° |
| 2026-05-05 13:42 | 44.90471 | 3.16628 | 32899 ft | 373 kts | 186° |
| 2026-05-05 13:42 | 44.85316 | 3.16552 | 32900 ft | 373 kts | 186° |
| 2026-05-05 13:43 | 44.80124 | 3.16477 | 32643 ft | 376 kts | 186° |
| 2026-05-05 13:43 | 44.77521 | 3.16439 | 32243 ft | 373 kts | 186° |
| 2026-05-05 13:43 | 44.74935 | 3.16403 | 31777 ft | 371 kts | 186° |
| 2026-05-05 13:44 | 44.72351 | 3.16366 | 31230 ft | 372 kts | 186° |
| 2026-05-05 13:44 | 44.69766 | 3.16329 | 30702 ft | 372 kts | 186° |
| 2026-05-05 13:44 | 44.67175 | 3.16291 | 30153 ft | 372 kts | 186° |
| 2026-05-05 13:44 | 44.64583 | 3.16254 | 29513 ft | 373 kts | 186° |
| 2026-05-05 13:45 | 44.61995 | 3.16217 | 29016 ft | 369 kts | 186° |
| 2026-05-05 13:45 | 44.59437 | 3.16246 | 28522 ft | 367 kts | 183° |
| 2026-05-05 13:45 | 44.56897 | 3.16446 | 28073 ft | 364 kts | 182° |
| 2026-05-05 13:45 | 44.54388 | 3.16709 | 27664 ft | 359 kts | 181° |
| 2026-05-05 13:46 | 44.51903 | 3.16984 | 27208 ft | 357 kts | 181° |
| 2026-05-05 13:46 | 44.49433 | 3.17251 | 26590 ft | 358 kts | 181° |
| 2026-05-05 13:46 | 44.46935 | 3.17509 | 25905 ft | 361 kts | 181° |
| 2026-05-05 13:46 | 44.44429 | 3.17760 | 25385 ft | 360 kts | 180° |
| 2026-05-05 13:47 | 44.41939 | 3.18008 | 24937 ft | 357 kts | 180° |
| 2026-05-05 13:47 | 44.39464 | 3.18251 | 24475 ft | 355 kts | 180° |
| 2026-05-05 13:47 | 44.37003 | 3.18490 | 24022 ft | 353 kts | 180° |
| 2026-05-05 13:47 | 44.34555 | 3.18726 | 23566 ft | 352 kts | 180° |
| 2026-05-05 13:48 | 44.32111 | 3.18960 | 23031 ft | 351 kts | 179° |
| 2026-05-05 13:48 | 44.29677 | 3.19193 | 22534 ft | 350 kts | 179° |
| 2026-05-05 13:48 | 44.27258 | 3.19425 | 22062 ft | 347 kts | 179° |
| 2026-05-05 13:48 | 44.24858 | 3.19655 | 21587 ft | 345 kts | 179° |
| 2026-05-05 13:49 | 44.22466 | 3.19883 | 21122 ft | 343 kts | 179° |
| 2026-05-05 13:49 | 44.20091 | 3.20109 | 20666 ft | 342 kts | 179° |
| 2026-05-05 13:49 | 44.17721 | 3.20335 | 20191 ft | 341 kts | 179° |
| 2026-05-05 13:49 | 44.15356 | 3.20560 | 19736 ft | 340 kts | 179° |
| 2026-05-05 13:50 | 44.13006 | 3.20784 | 19327 ft | 337 kts | 179° |
| 2026-05-05 13:50 | 44.10672 | 3.21006 | 18907 ft | 335 kts | 179° |
| 2026-05-05 13:50 | 44.08347 | 3.21226 | 18473 ft | 335 kts | 179° |
| 2026-05-05 13:50 | 44.06026 | 3.21447 | 18018 ft | 334 kts | 179° |
| 2026-05-05 13:51 | 44.03719 | 3.21666 | 17562 ft | 332 kts | 179° |
| 2026-05-05 13:51 | 44.01420 | 3.21884 | 17126 ft | 330 kts | 178° |
| 2026-05-05 13:51 | 43.99138 | 3.22100 | 16700 ft | 328 kts | 178° |
| 2026-05-05 13:51 | 43.96872 | 3.22315 | 16285 ft | 325 kts | 179° |
| 2026-05-05 13:52 | 43.94625 | 3.22527 | 15897 ft | 322 kts | 179° |
| 2026-05-05 13:52 | 43.92392 | 3.22738 | 15475 ft | 321 kts | 179° |
| 2026-05-05 13:52 | 43.90165 | 3.22948 | 15064 ft | 320 kts | 179° |
| 2026-05-05 13:52 | 43.87951 | 3.23157 | 14670 ft | 318 kts | 179° |
| 2026-05-05 13:53 | 43.85747 | 3.23365 | 14284 ft | 317 kts | 179° |
| 2026-05-05 13:53 | 43.83553 | 3.23572 | 13912 ft | 315 kts | 179° |
| 2026-05-05 13:53 | 43.81369 | 3.23778 | 13513 ft | 314 kts | 179° |
| 2026-05-05 13:53 | 43.79199 | 3.23981 | 13110 ft | 312 kts | 178° |
| 2026-05-05 13:54 | 43.77038 | 3.24184 | 12682 ft | 310 kts | 179° |
| 2026-05-05 13:54 | 43.74889 | 3.24386 | 12288 ft | 308 kts | 178° |
| 2026-05-05 13:54 | 43.72796 | 3.24583 | 12088 ft | 301 kts | 178° |
| 2026-05-05 13:54 | 43.70753 | 3.24777 | 11997 ft | 287 kts | 178° |
| 2026-05-05 13:55 | 43.68795 | 3.24961 | 11729 ft | 278 kts | 179° |
| 2026-05-05 13:55 | 43.66891 | 3.25196 | 11387 ft | 274 kts | 170° |
| 2026-05-05 13:55 | 43.65154 | 3.26273 | 10961 ft | 277 kts | 147° |
| 2026-05-05 13:55 | 43.63670 | 3.27981 | 10559 ft | 278 kts | 140° |
| 2026-05-05 13:56 | 43.62258 | 3.29801 | 10152 ft | 277 kts | 139° |
| 2026-05-05 13:56 | 43.60865 | 3.31625 | 9765 ft | 275 kts | 139° |
| 2026-05-05 13:56 | 43.59479 | 3.33434 | 9342 ft | 273 kts | 139° |
| 2026-05-05 13:56 | 43.58091 | 3.35234 | 8877 ft | 274 kts | 139° |
| 2026-05-05 13:57 | 43.56700 | 3.37027 | 8517 ft | 272 kts | 139° |
| 2026-05-05 13:57 | 43.55323 | 3.38795 | 8211 ft | 270 kts | 139° |
| 2026-05-05 13:57 | 43.53950 | 3.40553 | 7859 ft | 269 kts | 139° |
| 2026-05-05 13:57 | 43.52582 | 3.42300 | 7486 ft | 268 kts | 139° |
| 2026-05-05 13:58 | 43.51218 | 3.44038 | 7116 ft | 266 kts | 139° |
| 2026-05-05 13:58 | 43.49861 | 3.45766 | 6736 ft | 264 kts | 140° |
| 2026-05-05 13:58 | 43.48530 | 3.47460 | 6534 ft | 255 kts | 140° |
| 2026-05-05 13:58 | 43.47243 | 3.49094 | 6337 ft | 248 kts | 139° |
| 2026-05-05 13:59 | 43.44798 | 3.52197 | 6035 ft | 229 kts | 140° |
| 2026-05-05 13:59 | 43.43667 | 3.53634 | 5934 ft | 214 kts | 139° |
| 2026-05-05 14:00 | 43.41564 | 3.56301 | 5419 ft | 197 kts | 140° |
| 2026-05-05 14:00 | 43.40894 | 3.57147 | 5275 ft | 198 kts | 140° |
| 2026-05-05 14:00 | 43.39543 | 3.58854 | 4957 ft | 197 kts | 140° |
| 2026-05-05 14:00 | 43.38561 | 3.60095 | 4703 ft | 192 kts | 139° |
| 2026-05-05 14:01 | 43.37590 | 3.61322 | 4437 ft | 187 kts | 141° |
| 2026-05-05 14:01 | 43.36650 | 3.62485 | 4404 ft | 181 kts | 147° |
| 2026-05-05 14:01 | 43.35483 | 3.62940 | 4401 ft | 173 kts | 188° |
| 2026-05-05 14:01 | 43.34285 | 3.62780 | 4259 ft | 175 kts | 187° |
| 2026-05-05 14:02 | 43.33085 | 3.62642 | 4068 ft | 171 kts | 187° |
| 2026-05-05 14:02 | 43.31940 | 3.62393 | 3858 ft | 163 kts | 208° |
| 2026-05-05 14:02 | 43.31161 | 3.61355 | 3706 ft | 159 kts | 242° |
| 2026-05-05 14:02 | 43.30985 | 3.59855 | 3569 ft | 165 kts | 274° |
| 2026-05-05 14:03 | 43.31074 | 3.58263 | 3396 ft | 167 kts | 272° |
| 2026-05-05 14:03 | 43.31156 | 3.56680 | 3190 ft | 165 kts | 272° |
| 2026-05-05 14:03 | 43.31239 | 3.55147 | 2980 ft | 159 kts | 271° |
| 2026-05-05 14:03 | 43.31320 | 3.53622 | 2772 ft | 161 kts | 271° |
| 2026-05-05 14:04 | 43.31375 | 3.52589 | 2600 ft | 166 kts | 271° |
| 2026-05-05 14:04 | 43.31464 | 3.50996 | 2369 ft | 168 kts | 271° |
| 2026-05-05 14:04 | 43.31553 | 3.49403 | 2098 ft | 167 kts | 271° |
| 2026-05-05 14:04 | 43.31641 | 3.47830 | 1843 ft | 162 kts | 271° |
| 2026-05-05 14:05 | 43.31727 | 3.46336 | 1633 ft | 152 kts | 270° |
| 2026-05-05 14:05 | 43.31807 | 3.44924 | 1370 ft | 144 kts | 270° |
| 2026-05-05 14:05 | 43.31883 | 3.43591 | 1207 ft | 138 kts | 270° |
| 2026-05-05 14:05 | 43.31956 | 3.42281 | 988 ft | 136 kts | 270° |
| 2026-05-05 14:06 | 43.32029 | 3.40986 | 803 ft | 137 kts | 269° |
| 2026-05-05 14:06 | 43.32110 | 3.39666 | 584 ft | 142 kts | 270° |
| 2026-05-05 14:06 | 43.32190 | 3.38302 | 365 ft | 144 kts | 269° |
| 2026-05-05 14:06 | 43.32254 | 3.36930 | 126 ft | 143 kts | 269° |
| 2026-05-05 14:07 | 43.32322 | 3.35633 | 52 ft | 119 kts | 276° |
| 2026-05-05 14:07 | 43.32365 | 3.34884 | 58 ft | 53 kts | 274° |
| 2026-05-05 14:07 | 43.32389 | 3.34469 | 59 ft | 32 kts | 274° |
| 2026-05-05 14:07 | 43.32400 | 3.34299 | 57 ft | 12 kts | 272° |
| 2026-05-05 14:08 | 43.32384 | 3.34224 | 59 ft | 4 kts | 256° |
| 2026-05-05 14:08 | 43.32405 | 3.34203 | 52 ft | 4 kts | 14° |
| 2026-05-05 14:08 | 43.32411 | 3.34243 | 59 ft | 5 kts | 92° |
| 2026-05-05 14:08 | 43.32405 | 3.34320 | 58 ft | 12 kts | 97° |
| 2026-05-05 14:09 | 43.32394 | 3.34468 | 59 ft | 19 kts | 94° |
| 2026-05-05 14:09 | 43.32380 | 3.34687 | 56 ft | 26 kts | 94° |
| 2026-05-05 14:09 | 43.32366 | 3.34959 | 58 ft | 30 kts | 94° |
| 2026-05-05 14:09 | 43.32351 | 3.35219 | 56 ft | 16 kts | 94° |
| 2026-05-05 14:10 | 43.32319 | 3.35331 | 56 ft | 11 kts | 158° |
| 2026-05-05 14:10 | 43.32257 | 3.35332 | 55 ft | 8 kts | 183° |
| 2026-05-05 14:10 | 43.32221 | 3.35328 | 58 ft | 2 kts | 185° |
| 2026-05-05 14:10 | 43.32202 | 3.35327 | 58 ft | 3 kts | 179° |
| 2026-05-05 14:11 | 43.32177 | 3.35342 | 54 ft | 5 kts | 157° |
| 2026-05-05 14:11 | 43.32143 | 3.35344 | 57 ft | 4 kts | 183° |
| 2026-05-05 14:11 | 43.32139 | 3.35344 | 57 ft | 0 kts | 183° |
| 2026-05-05 14:11 | 43.32137 | 3.35343 | 54 ft | 1 kts | 183° |
| 2026-05-05 14:12 | 43.32123 | 3.35342 | 57 ft | 0 kts | 183° |